Time;durP1;ratioP1;P1;durP2;ratioP2;P2;SDS_P1;SDS_P2;PMS_P1;PMS_P2;Temp;Humidity;BMP_temperature;BMP_pressure;BME280_temperature;BME280_humidity;BME280_pressure;Samples;Min_cycle;Max_cycle;Signal;HPM_P1;HPM_P2
2021/05/27 00:01:25;;;;;;;8.50;2.87;;;15.40;62.00;;;;;;6187465;23;20022;-82
2021/05/27 00:03:51;;;;;;;7.10;2.27;;;15.40;62.20;;;;;;6212590;23;20035;-82
2021/05/27 00:06:17;;;;;;;5.40;2.60;;;15.40;62.20;;;;;;6188723;23;20001;-82
2021/05/27 00:08:42;;;;;;;6.40;2.03;;;15.40;62.20;;;;;;6214881;23;19993;-82
2021/05/27 00:11:08;;;;;;;5.07;1.80;;;15.40;62.30;;;;;;6187858;23;20007;-82
2021/05/27 00:13:34;;;;;;;6.67;2.33;;;15.40;62.50;;;;;;6188886;23;20091;-82
2021/05/27 00:16:00;;;;;;;5.60;2.17;;;15.30;62.50;;;;;;6188318;23;20008;-82
2021/05/27 00:18:26;;;;;;;6.47;2.43;;;15.30;62.50;;;;;;6188415;23;20008;-82
2021/05/27 00:20:51;;;;;;;5.07;2.23;;;15.30;62.70;;;;;;6214116;23;20000;-83
2021/05/27 00:23:17;;;;;;;6.77;2.60;;;15.30;63.10;;;;;;6214916;23;20331;-82
2021/05/27 00:25:43;;;;;;;6.93;2.60;;;15.20;63.00;;;;;;6187813;23;20036;-82
2021/05/27 00:28:09;;;;;;;5.33;2.30;;;15.20;63.10;;;;;;6188079;23;20027;-83
2021/05/27 00:30:35;;;;;;;6.70;2.63;;;15.30;63.20;;;;;;6188491;23;20004;-82
2021/05/27 00:33:01;;;;;;;9.60;2.53;;;15.20;63.50;;;;;;6188232;23;20001;-82
2021/05/27 00:35:26;;;;;;;10.33;2.50;;;15.20;64.20;;;;;;6188434;23;20078;-82
2021/05/27 00:37:52;;;;;;;5.47;2.20;;;15.20;64.60;;;;;;6187589;23;20079;-82
2021/05/27 00:40:18;;;;;;;9.27;3.10;;;15.20;64.70;;;;;;6188148;23;20050;-82
2021/05/27 00:42:45;;;;;;;8.43;2.70;;;15.20;64.70;;;;;;6186867;23;20503;-82
2021/05/27 00:45:14;;;;;;;7.87;2.80;;;15.20;65.40;;;;;;6186917;23;20016;-82
2021/05/27 00:47:41;;;;;;;5.33;2.47;;;15.20;65.00;;;;;;6188896;23;20477;-82
2021/05/27 00:50:10;;;;;;;5.50;2.57;;;15.20;65.00;;;;;;6214715;23;20026;-82
2021/05/27 00:52:36;;;;;;;6.27;2.40;;;15.20;65.20;;;;;;6188206;23;20005;-82
2021/05/27 00:55:04;;;;;;;6.33;2.27;;;15.20;65.80;;;;;;6187469;23;20007;-83
2021/05/27 00:57:36;;;;;;;5.40;2.43;;;15.20;65.00;;;;;;6187190;23;20419;-82
2021/05/27 01:00:05;;;;;;;2.77;1.80;;;15.20;64.90;;;;;;6187787;23;20005;-83
2021/05/27 01:02:31;;;;;;;5.13;1.67;;;15.20;65.10;;;;;;6187652;23;20012;-82
2021/05/27 01:04:56;;;;;;;3.07;2.00;;;15.20;65.00;;;;;;6187359;23;20364;-82
2021/05/27 01:07:23;;;;;;;4.50;1.70;;;15.20;65.40;;;;;;6188198;23;20008;-82
2021/05/27 01:09:49;;;;;;;3.73;1.53;;;15.10;66.10;;;;;;6187989;23;20372;-82
2021/05/27 01:12:14;;;;;;;2.57;1.57;;;15.10;65.30;;;;;;6214364;23;20003;-83
2021/05/27 01:17:25;;;;;;;2.60;1.10;;;14.90;65.60;;;;;;6213964;23;20011;-83
2021/05/27 01:19:54;;;;;;;2.07;0.83;;;14.90;65.80;;;;;;6187428;23;20347;-82
2021/05/27 01:22:23;;;;;;;4.50;0.90;;;14.80;65.60;;;;;;6191068;23;20083;-82
2021/05/27 01:24:49;;;;;;;3.73;1.00;;;14.80;65.60;;;;;;6189535;23;20083;-82
2021/05/27 01:27:16;;;;;;;1.17;0.60;;;14.60;65.30;;;;;;6189518;23;20016;-81
2021/05/27 01:29:43;;;;;;;0.80;0.40;;;14.50;65.30;;;;;;6187619;23;20004;-83
2021/05/27 01:32:09;;;;;;;1.27;0.47;;;14.40;65.40;;;;;;6188567;23;20028;-82
2021/05/27 01:34:36;;;;;;;1.03;0.60;;;14.40;64.90;;;;;;6187280;23;20073;-82
2021/05/27 01:37:03;;;;;;;0.67;0.47;;;14.30;64.70;;;;;;6187643;23;20029;-82
2021/05/27 01:39:29;;;;;;;0.90;0.40;;;14.20;64.80;;;;;;6187616;23;20005;-82
2021/05/27 01:41:54;;;;;;;1.60;0.70;;;14.00;64.70;;;;;;6186510;23;20011;-82
2021/05/27 01:44:20;;;;;;;2.03;0.47;;;13.90;65.20;;;;;;6186803;23;20013;-82
2021/05/27 01:46:46;;;;;;;1.07;0.40;;;13.90;65.30;;;;;;6187874;23;20027;-82
2021/05/27 01:49:12;;;;;;;1.30;0.50;;;13.80;65.40;;;;;;6187711;23;20088;-82
2021/05/27 01:51:37;;;;;;;1.87;0.53;;;13.80;65.30;;;;;;6187771;23;20070;-82
2021/05/27 01:54:04;;;;;;;1.00;0.50;;;13.80;65.40;;;;;;6210793;23;20005;-82
2021/05/27 01:56:30;;;;;;;0.70;0.50;;;13.70;65.50;;;;;;6184927;23;20047;-82
2021/05/27 01:59:05;;;;;;;0.30;0.30;;;13.80;65.30;;;;;;6187415;23;20016;-82
2021/05/27 02:01:31;;;;;;;1.60;0.33;;;13.70;65.20;;;;;;6187928;23;20000;-82
2021/05/27 02:03:57;;;;;;;1.20;0.50;;;13.70;65.70;;;;;;6187114;23;20085;-82
2021/05/27 02:06:23;;;;;;;1.20;0.50;;;13.70;65.40;;;;;;6187461;23;20036;-82
2021/05/27 02:11:34;;;;;;;1.17;0.50;;;13.60;65.60;;;;;;6224395;23;20054;-82
2021/05/27 02:14:00;;;;;;;0.87;0.40;;;13.70;65.60;;;;;;6187187;23;20075;-82
2021/05/27 02:16:26;;;;;;;1.87;0.60;;;13.70;65.40;;;;;;6213255;23;20098;-81
2021/05/27 02:18:52;;;;;;;0.53;0.40;;;13.80;65.40;;;;;;6214577;23;20000;-82
2021/05/27 02:21:17;;;;;;;2.90;0.60;;;13.80;65.30;;;;;;6187378;23;20446;-82
2021/05/27 02:23:43;;;;;;;0.70;0.47;;;13.90;65.30;;;;;;6187378;23;20032;-82
2021/05/27 02:26:09;;;;;;;3.30;0.53;;;13.90;65.20;;;;;;6187036;23;20036;-82
2021/05/27 02:28:34;;;;;;;0.70;0.40;;;13.80;65.20;;;;;;6189113;23;20050;-89
2021/05/27 02:31:00;;;;;;;1.40;0.50;;;13.70;65.20;;;;;;6189981;23;20070;-90
2021/05/27 02:33:26;;;;;;;0.53;0.40;;;13.60;65.40;;;;;;6215670;23;20007;-90
2021/05/27 02:35:51;;;;;;;0.80;0.40;;;13.60;65.60;;;;;;6216054;23;20000;-89
2021/05/27 02:38:17;;;;;;;0.57;0.30;;;13.50;65.40;;;;;;6189812;23;20035;-89
2021/05/27 02:40:43;;;;;;;0.80;0.37;;;13.50;65.70;;;;;;6189438;23;20001;-90
2021/05/27 02:43:09;;;;;;;0.90;0.40;;;13.50;65.60;;;;;;6188791;23;20013;-90
2021/05/27 02:45:34;;;;;;;1.73;0.70;;;13.50;65.60;;;;;;6188895;23;20023;-90
2021/05/27 02:48:00;;;;;;;1.70;0.47;;;13.50;65.80;;;;;;6216061;23;20082;-90
2021/05/27 02:50:26;;;;;;;1.67;0.43;;;13.60;65.70;;;;;;6190134;23;20453;-91
2021/05/27 02:52:52;;;;;;;2.57;0.33;;;13.60;65.50;;;;;;6189586;23;20011;-88
2021/05/27 02:55:17;;;;;;;0.67;0.40;;;13.60;65.60;;;;;;6188898;23;20020;-89
2021/05/27 02:57:43;;;;;;;1.93;0.50;;;13.60;65.50;;;;;;6189658;23;20055;-91
2021/05/27 03:00:09;;;;;;;0.93;0.40;;;13.60;65.40;;;;;;6215552;23;20043;-89
2021/05/27 03:02:35;;;;;;;0.57;0.47;;;13.60;65.40;;;;;;6189190;23;20004;-90
2021/05/27 03:05:01;;;;;;;0.80;0.50;;;13.60;65.40;;;;;;6190110;23;20012;-90
2021/05/27 03:07:26;;;;;;;0.53;0.30;;;13.60;65.30;;;;;;6215239;23;20004;-89
2021/05/27 03:09:52;;;;;;;0.97;0.40;;;13.60;65.10;;;;;;6188863;23;20001;-90
2021/05/27 03:12:18;;;;;;;0.50;0.40;;;13.60;65.10;;;;;;6189026;23;20315;-89
2021/05/27 03:14:43;;;;;;;0.50;0.40;;;13.60;65.10;;;;;;6188562;23;20079;-90
2021/05/27 03:17:09;;;;;;;0.90;0.30;;;13.60;65.10;;;;;;6189210;23;20008;-88
2021/05/27 03:19:35;;;;;;;0.40;0.30;;;13.60;65.20;;;;;;6189884;23;20040;-90
2021/05/27 03:22:01;;;;;;;1.37;0.40;;;13.50;65.30;;;;;;6191860;23;20008;-89
2021/05/27 03:24:26;;;;;;;1.23;0.40;;;13.50;65.50;;;;;;6191842;23;20004;-89
2021/05/27 03:26:53;;;;;;;0.47;0.33;;;13.50;65.60;;;;;;6191554;23;20047;-89
2021/05/27 03:29:19;;;;;;;0.67;0.40;;;13.60;65.60;;;;;;6191084;23;20008;-90
2021/05/27 03:31:45;;;;;;;0.63;0.40;;;13.60;65.50;;;;;;6191196;23;20005;-91
2021/05/27 03:34:11;;;;;;;0.43;0.30;;;13.60;65.50;;;;;;6191290;23;20445;-91
2021/05/27 03:36:37;;;;;;;1.07;0.40;;;13.60;65.50;;;;;;6191600;23;20000;-90
2021/05/27 03:39:05;;;;;;;0.83;0.43;;;13.60;65.60;;;;;;6192183;23;20004;-90
2021/05/27 03:41:31;;;;;;;0.83;0.50;;;13.60;65.60;;;;;;6190317;23;20019;-89
2021/05/27 03:43:56;;;;;;;0.73;0.40;;;13.60;65.50;;;;;;6185901;23;20013;-91
2021/05/27 03:46:22;;;;;;;1.90;0.47;;;13.60;65.40;;;;;;6186187;23;20048;-89
2021/05/27 03:48:48;;;;;;;1.50;0.50;;;13.60;65.50;;;;;;6186308;23;19991;-90
2021/05/27 03:51:14;;;;;;;1.10;0.40;;;13.60;65.40;;;;;;6186676;23;20033;-89
2021/05/27 03:53:40;;;;;;;1.37;0.43;;;13.60;65.20;;;;;;6185945;23;20076;-89
2021/05/27 03:56:06;;;;;;;1.50;0.47;;;13.50;65.20;;;;;;6188454;23;20016;-90
2021/05/27 04:01:18;;;;;;;0.87;0.50;;;13.60;65.40;;;;;;6187400;23;20015;-90
2021/05/27 04:09:13;;;;;;;1.90;0.50;;;13.60;65.20;;;;;;6188128;23;20007;-89
2021/05/27 04:11:39;;;;;;;1.27;0.40;;;13.60;65.10;;;;;;6185672;23;20008;-89
2021/05/27 04:14:05;;;;;;;0.80;0.40;;;13.60;64.90;;;;;;6185417;23;20092;-89
2021/05/27 04:16:31;;;;;;;1.53;1.03;;;13.60;65.00;;;;;;6187261;23;20077;-90
2021/05/27 04:18:56;;;;;;;0.93;0.37;;;13.60;65.00;;;;;;6185523;23;20005;-89
2021/05/27 04:21:22;;;;;;;0.60;0.30;;;13.50;64.70;;;;;;6186248;23;20001;-90
2021/05/27 04:23:48;;;;;;;0.60;0.47;;;13.50;64.70;;;;;;6185992;23;20028;-89
2021/05/27 04:26:16;;;;;;;0.87;0.33;;;13.40;64.70;;;;;;6186222;23;20383;-90
2021/05/27 04:28:44;;;;;;;0.60;0.40;;;13.50;64.90;;;;;;6185255;23;20025;-89
2021/05/27 04:31:14;;;;;;;2.30;0.40;;;13.50;64.90;;;;;;6187172;23;20001;-90
2021/05/27 04:33:52;;;;;;;0.50;0.30;;;13.60;64.80;;;;;;6186545;23;20040;-90
2021/05/27 04:36:18;;;;;;;0.60;0.50;;;13.60;64.80;;;;;;6186075;23;20009;-90
2021/05/27 04:38:46;;;;;;;1.07;0.60;;;13.50;64.70;;;;;;6186306;23;20029;-90
2021/05/27 04:41:12;;;;;;;0.97;0.33;;;13.50;64.60;;;;;;6185240;23;20065;-90
2021/05/27 04:43:39;;;;;;;1.23;0.70;;;13.60;64.50;;;;;;6189326;23;20497;-89
2021/05/27 04:46:06;;;;;;;1.00;0.53;;;13.50;64.30;;;;;;6190378;23;20449;-89
2021/05/27 04:48:31;;;;;;;0.90;0.53;;;13.50;64.00;;;;;;6190669;23;20000;-89
2021/05/27 04:50:58;;;;;;;1.00;0.60;;;13.50;64.10;;;;;;6189945;23;20454;-89
2021/05/27 04:53:26;;;;;;;0.53;0.40;;;13.40;64.40;;;;;;6217180;23;20000;-89
2021/05/27 04:55:53;;;;;;;1.20;0.50;;;13.50;64.30;;;;;;6190537;23;20009;-90
2021/05/27 04:58:19;;;;;;;1.27;0.40;;;13.50;64.30;;;;;;6190636;23;20005;-90
2021/05/27 05:00:45;;;;;;;2.00;0.40;;;13.50;64.10;;;;;;6216339;23;20054;-90
2021/05/27 05:03:11;;;;;;;1.93;0.60;;;13.50;63.90;;;;;;6190426;23;20023;-89
2021/05/27 05:05:38;;;;;;;1.00;0.40;;;13.50;64.10;;;;;;6189756;23;20012;-90
2021/05/27 05:08:04;;;;;;;2.63;0.50;;;13.40;63.90;;;;;;6190620;23;20466;-90
2021/05/27 05:10:31;;;;;;;1.10;0.60;;;13.40;63.80;;;;;;6216164;23;19996;-89
2021/05/27 05:12:58;;;;;;;3.30;0.40;;;13.40;63.80;;;;;;6189656;23;20001;-90
2021/05/27 05:15:25;;;;;;;0.40;0.40;;;13.40;63.60;;;;;;6189891;23;20013;-89
2021/05/27 05:17:53;;;;;;;1.23;0.50;;;13.30;63.80;;;;;;6190529;23;20009;-90
2021/05/27 05:20:21;;;;;;;0.63;0.40;;;13.30;63.70;;;;;;6189537;23;20008;-90
2021/05/27 05:22:48;;;;;;;1.17;0.60;;;13.30;63.60;;;;;;6190146;23;20009;-90
2021/05/27 05:25:14;;;;;;;1.60;0.60;;;13.30;63.70;;;;;;6190480;23;20063;-90
2021/05/27 05:27:41;;;;;;;1.27;0.67;;;13.40;63.80;;;;;;6190414;23;20031;-90
2021/05/27 05:30:07;;;;;;;11.13;0.77;;;13.40;63.80;;;;;;6189883;23;19997;-90
2021/05/27 05:32:33;;;;;;;0.47;0.40;;;13.40;63.90;;;;;;6189701;23;20001;-89
2021/05/27 05:35:00;;;;;;;1.63;0.90;;;13.40;63.70;;;;;;6189542;23;20011;-90
2021/05/27 05:37:27;;;;;;;2.93;0.93;;;13.40;63.50;;;;;;6190211;23;20064;-90
2021/05/27 05:39:53;;;;;;;3.10;1.17;;;13.60;63.80;;;;;;6216051;23;20001;-89
2021/05/27 05:42:18;;;;;;;1.23;0.60;;;13.60;63.30;;;;;;6189223;23;20028;-90
2021/05/27 05:44:44;;;;;;;1.27;0.47;;;13.50;63.50;;;;;;6188979;23;20024;-88
2021/05/27 05:47:10;;;;;;;1.13;0.60;;;13.50;63.60;;;;;;6190396;23;20059;-91
2021/05/27 05:49:36;;;;;;;0.77;0.40;;;13.50;63.40;;;;;;6190546;23;20087;-90
2021/05/27 05:52:02;;;;;;;0.73;0.40;;;13.60;63.40;;;;;;6190508;23;20004;-90
2021/05/27 05:54:28;;;;;;;1.60;0.40;;;13.50;63.60;;;;;;6188888;23;20091;-89
2021/05/27 05:56:53;;;;;;;1.63;0.43;;;13.50;63.70;;;;;;6189109;23;20383;-90
2021/05/27 05:59:19;;;;;;;7.80;0.50;;;13.50;63.70;;;;;;6186502;23;20075;-90
2021/05/27 06:01:45;;;;;;;0.83;0.40;;;13.60;63.80;;;;;;6214507;23;20059;-88
2021/05/27 06:04:11;;;;;;;1.13;0.63;;;13.60;63.60;;;;;;6189710;23;20431;-90
2021/05/27 06:06:37;;;;;;;2.57;0.70;;;13.60;63.80;;;;;;6191076;23;20001;-89
2021/05/27 06:09:03;;;;;;;1.97;0.60;;;13.50;63.90;;;;;;6190367;23;20011;-90
2021/05/27 06:11:29;;;;;;;3.43;0.70;;;13.50;64.10;;;;;;6189737;23;20004;-90
2021/05/27 06:13:56;;;;;;;0.87;0.60;;;13.50;64.10;;;;;;6194128;23;20062;-89
2021/05/27 06:16:22;;;;;;;1.23;0.50;;;13.50;64.10;;;;;;6221710;23;20011;-90
2021/05/27 06:18:47;;;;;;;2.03;0.80;;;13.50;64.30;;;;;;6195439;23;20008;-90
2021/05/27 06:21:13;;;;;;;1.50;0.70;;;13.50;64.60;;;;;;6192878;23;20008;-90
2021/05/27 06:23:39;;;;;;;1.00;0.50;;;13.50;64.60;;;;;;6217575;23;20407;-90
2021/05/27 06:26:05;;;;;;;2.87;0.53;;;13.50;64.70;;;;;;6217441;23;20130;-90
2021/05/27 06:28:31;;;;;;;3.67;0.67;;;13.60;64.80;;;;;;6217280;23;20003;-90
2021/05/27 06:30:57;;;;;;;1.30;0.67;;;13.60;64.80;;;;;;6191002;23;20377;-90
2021/05/27 06:33:23;;;;;;;3.87;0.70;;;13.60;64.90;;;;;;6189373;23;20012;-90
2021/05/27 06:35:49;;;;;;;1.20;0.63;;;13.60;65.10;;;;;;6214793;23;20008;-88
2021/05/27 06:38:15;;;;;;;4.43;0.77;;;13.60;65.10;;;;;;6188297;23;20009;-90
2021/05/27 06:40:41;;;;;;;2.30;0.80;;;13.60;65.10;;;;;;6188544;23;20431;-90
2021/05/27 06:43:07;;;;;;;2.13;1.00;;;13.70;65.20;;;;;;6188670;23;20009;-89
2021/05/27 06:45:34;;;;;;;3.33;1.00;;;13.60;65.10;;;;;;6189274;23;20027;-87
2021/05/27 06:48:00;;;;;;;2.30;0.93;;;13.50;65.30;;;;;;6189313;23;20012;-89
2021/05/27 06:50:32;;;;;;;4.13;1.00;;;13.50;65.40;;;;;;6190487;23;20442;-90
2021/05/27 06:53:10;;;;;;;5.32;0.93;;;13.60;65.70;;;;;;6216627;23;20000;-89
2021/05/27 06:55:38;;;;;;;1.47;0.80;;;13.60;65.80;;;;;;6192261;23;20347;-89
2021/05/27 06:58:05;;;;;;;4.03;0.83;;;13.60;65.90;;;;;;6191881;23;20430;-90
2021/05/27 07:00:31;;;;;;;3.13;0.80;;;13.60;66.10;;;;;;6192341;23;20008;-90
2021/05/27 07:02:57;;;;;;;2.57;0.60;;;13.60;66.20;;;;;;6192720;23;20008;-90
2021/05/27 07:05:25;;;;;;;1.50;0.50;;;13.50;66.20;;;;;;6164326;23;20020;-89
2021/05/27 07:07:51;;;;;;;1.57;0.73;;;13.50;66.40;;;;;;6190236;23;20079;-90
2021/05/27 07:10:17;;;;;;;1.40;0.70;;;13.50;66.30;;;;;;6192080;23;20001;-90
2021/05/27 07:12:54;;;;;;;2.23;0.70;;;13.50;66.40;;;;;;6191515;23;20027;-90
2021/05/27 07:15:22;;;;;;;1.33;0.83;;;13.60;66.50;;;;;;6191623;23;20004;-89
2021/05/27 07:17:49;;;;;;;1.20;0.80;;;13.60;66.30;;;;;;6191719;23;20035;-89
2021/05/27 07:20:16;;;;;;;0.70;0.60;;;13.60;66.30;;;;;;6191720;23;20005;-90
2021/05/27 07:22:42;;;;;;;1.50;0.80;;;13.60;66.30;;;;;;6191979;23;20004;-90
2021/05/27 07:25:09;;;;;;;1.10;0.63;;;13.70;66.20;;;;;;6191309;23;20009;-90
2021/05/27 07:27:35;;;;;;;1.73;1.00;;;13.70;66.30;;;;;;6191313;23;20502;-89
2021/05/27 07:30:01;;;;;;;2.57;1.07;;;13.70;66.40;;;;;;6191114;23;20431;-89
2021/05/27 07:32:27;;;;;;;3.53;1.30;;;13.70;66.60;;;;;;6191364;23;20000;-90
2021/05/27 07:34:52;;;;;;;2.63;0.80;;;13.60;66.80;;;;;;6217720;23;20032;-90
2021/05/27 07:37:19;;;;;;;2.20;1.47;;;13.60;67.10;;;;;;6217740;23;20000;-88
2021/05/27 07:39:45;;;;;;;1.97;1.10;;;13.60;67.40;;;;;;6190628;23;20035;-89
2021/05/27 07:42:11;;;;;;;2.13;1.00;;;13.70;67.50;;;;;;6190361;23;20005;-89
2021/05/27 07:44:37;;;;;;;1.30;0.80;;;13.70;67.50;;;;;;6215929;23;20020;-90
2021/05/27 07:47:03;;;;;;;3.40;1.00;;;13.70;67.40;;;;;;6190694;23;20004;-90
2021/05/27 07:49:29;;;;;;;3.90;1.23;;;13.70;67.30;;;;;;6191002;23;20023;-88
2021/05/27 07:51:56;;;;;;;3.73;1.03;;;13.70;67.40;;;;;;6190491;23;20044;-90
2021/05/27 07:54:22;;;;;;;5.47;1.53;;;13.70;67.40;;;;;;6188474;23;20794;-89
2021/05/27 07:56:48;;;;;;;2.10;1.10;;;13.70;67.50;;;;;;6164938;23;20005;-88
2021/05/27 07:59:15;;;;;;;3.63;0.93;;;13.60;67.60;;;;;;6190319;23;20027;-89
2021/05/27 08:01:41;;;;;;;1.63;0.80;;;13.60;67.80;;;;;;6191387;23;20055;-90
2021/05/27 08:04:07;;;;;;;6.10;1.40;;;13.60;67.80;;;;;;6193532;23;20008;-90
2021/05/27 08:06:33;;;;;;;1.70;0.90;;;13.70;67.80;;;;;;6190442;23;20527;-89
2021/05/27 08:08:59;;;;;;;3.77;1.20;;;13.70;67.80;;;;;;6216166;23;20434;-90
2021/05/27 08:11:25;;;;;;;3.20;1.07;;;13.70;67.90;;;;;;6190927;23;20001;-89
2021/05/27 08:13:50;;;;;;;2.93;0.93;;;13.80;67.90;;;;;;6186748;23;20193;-88
2021/05/27 08:16:16;;;;;;;4.37;1.33;;;13.80;67.80;;;;;;6216213;23;20008;-89
2021/05/27 08:18:42;;;;;;;4.37;1.17;;;13.80;68.00;;;;;;6188855;23;20008;-88
2021/05/27 08:21:08;;;;;;;2.73;0.97;;;13.80;68.20;;;;;;6189447;23;20000;-89
2021/05/27 08:23:35;;;;;;;4.97;1.00;;;13.70;68.20;;;;;;6189265;23;20005;-90
2021/05/27 08:26:01;;;;;;;3.67;0.80;;;13.70;68.50;;;;;;6188037;23;20008;-89
2021/05/27 08:28:26;;;;;;;3.47;1.80;;;13.70;68.40;;;;;;6189510;23;20442;-89
2021/05/27 08:30:52;;;;;;;5.23;1.40;;;13.70;68.30;;;;;;6189866;23;20301;-89
2021/05/27 08:33:18;;;;;;;3.77;1.47;;;13.70;68.40;;;;;;6189292;23;20086;-89
2021/05/27 08:35:44;;;;;;;3.17;0.90;;;13.70;68.50;;;;;;6215498;23;20423;-90
2021/05/27 08:38:11;;;;;;;5.00;1.23;;;13.70;68.60;;;;;;6188554;23;20013;-88
2021/05/27 08:40:39;;;;;;;2.03;1.13;;;13.70;68.50;;;;;;6188212;23;20008;-89
2021/05/27 08:43:07;;;;;;;3.20;1.20;;;13.70;68.40;;;;;;6189803;23;20008;-89
2021/05/27 08:45:36;;;;;;;2.63;1.10;;;13.60;68.60;;;;;;6183636;23;20013;-89
2021/05/27 08:48:02;;;;;;;4.17;1.40;;;13.70;68.60;;;;;;6183655;23;20029;-89
2021/05/27 08:50:32;;;;;;;3.90;1.20;;;13.60;68.80;;;;;;6183698;23;20051;-89
2021/05/27 08:52:59;;;;;;;3.23;1.93;;;13.60;68.70;;;;;;6184287;23;20029;-89
2021/05/27 08:55:25;;;;;;;4.50;1.67;;;13.60;68.60;;;;;;6184086;23;20088;-88
2021/05/27 08:57:51;;;;;;;8.67;1.57;;;13.60;68.60;;;;;;6185967;23;20047;-90
2021/05/27 09:00:18;;;;;;;2.07;1.07;;;13.60;68.90;;;;;;6184657;23;20498;-89
2021/05/27 09:02:52;;;;;;;1.73;1.10;;;13.60;68.80;;;;;;6185409;23;20005;-89
2021/05/27 09:05:19;;;;;;;5.40;0.93;;;13.70;68.60;;;;;;6184442;23;20009;-89
2021/05/27 09:07:46;;;;;;;3.70;1.10;;;13.70;68.40;;;;;;6184221;23;20013;-89
2021/05/27 09:10:12;;;;;;;5.20;1.60;;;13.60;68.40;;;;;;6184528;23;20005;-87
2021/05/27 09:12:38;;;;;;;1.93;1.30;;;13.70;68.70;;;;;;6185133;23;20001;-89
2021/05/27 09:15:14;;;;;;;3.00;1.30;;;13.70;68.80;;;;;;6185158;23;20016;-89
2021/05/27 09:17:45;;;;;;;2.23;1.50;;;13.70;69.10;;;;;;6187089;23;20036;-89
2021/05/27 09:20:26;;;;;;;4.73;1.80;;;13.70;69.30;;;;;;6185800;23;20618;-90
2021/05/27 09:23:06;;;;;;;3.93;1.63;;;13.60;68.90;;;;;;6184991;23;20048;-89
2021/05/27 09:25:35;;;;;;;4.53;2.03;;;13.60;69.60;;;;;;6185228;23;20435;-88
2021/05/27 09:28:01;;;;;;;7.37;1.77;;;13.70;69.60;;;;;;6185680;23;20411;-90
2021/05/27 09:30:27;;;;;;;3.67;1.80;;;13.80;69.80;;;;;;6187097;23;19997;-90
2021/05/27 09:32:56;;;;;;;6.67;2.70;;;13.90;69.90;;;;;;6185782;23;20435;-89
2021/05/27 09:35:22;;;;;;;4.60;1.97;;;13.90;69.70;;;;;;6185941;23;20009;-90
2021/05/27 09:37:52;;;;;;;4.67;2.07;;;13.90;70.10;;;;;;6185738;23;20011;-89
2021/05/27 09:40:30;;;;;;;4.03;2.20;;;13.90;70.30;;;;;;6186170;23;20096;-90
2021/05/27 09:42:58;;;;;;;3.97;1.50;;;14.00;70.50;;;;;;6185339;23;20312;-89
2021/05/27 09:45:28;;;;;;;4.27;1.50;;;14.10;70.20;;;;;;6184114;23;20044;-89
2021/05/27 09:47:55;;;;;;;2.50;1.57;;;14.10;70.10;;;;;;6185118;23;20093;-87
2021/05/27 09:50:31;;;;;;;4.73;2.47;;;14.00;70.00;;;;;;6185130;23;20005;-90
2021/05/27 09:53:11;;;;;;;3.07;1.87;;;14.00;70.30;;;;;;6184758;23;20072;-87
2021/05/27 09:55:38;;;;;;;4.53;1.40;;;14.00;70.40;;;;;;6181864;23;20005;-89
2021/05/27 09:58:10;;;;;;;2.50;1.40;;;14.00;70.40;;;;;;6184145;23;20025;-87
2021/05/27 10:00:36;;;;;;;3.40;1.47;;;14.10;70.30;;;;;;6185203;23;20009;-89
2021/05/27 10:03:22;;;;;;;5.10;2.03;;;14.10;70.00;;;;;;6186634;23;20001;-89
2021/05/27 10:05:50;;;;;;;1.30;1.20;;;14.20;70.20;;;;;;6169008;23;20029;-90
2021/05/27 10:08:17;;;;;;;4.60;1.70;;;14.10;69.70;;;;;;6185201;23;20479;-89
2021/05/27 10:10:43;;;;;;;2.30;1.40;;;14.10;70.00;;;;;;6184334;23;20001;-90
2021/05/27 10:13:10;;;;;;;4.70;1.53;;;14.10;69.70;;;;;;6184799;23;20083;-90
2021/05/27 10:15:37;;;;;;;2.53;1.30;;;14.10;69.40;;;;;;6184775;23;20008;-90
2021/05/27 10:18:04;;;;;;;2.70;1.40;;;14.10;69.90;;;;;;6185584;23;20009;-91
2021/05/27 10:20:31;;;;;;;1.60;1.37;;;14.10;69.70;;;;;;6185714;23;20041;-89
2021/05/27 10:22:58;;;;;;;5.73;2.30;;;14.10;69.50;;;;;;6185012;23;20001;-89
2021/05/27 10:25:25;;;;;;;4.30;1.23;;;14.20;69.50;;;;;;6185212;23;20005;-90
2021/05/27 10:27:57;;;;;;;2.17;1.43;;;14.20;68.90;;;;;;6184666;23;20001;-89
2021/05/27 10:30:40;;;;;;;3.13;1.25;;;14.20;68.80;;;;;;6189451;23;20080;-89
2021/05/27 10:33:07;;;;;;;4.10;1.20;;;14.20;68.90;;;;;;6187662;23;20084;-89
2021/05/27 10:36:00;;;;;;;1.83;1.20;;;14.20;68.90;;;;;;6187167;23;20015;-89
2021/05/27 10:38:48;;;;;;;1.98;0.98;;;14.30;68.90;;;;;;6187204;23;20445;-90
2021/05/27 10:41:29;;;;;;;3.37;0.80;;;14.30;68.50;;;;;;6187680;23;20001;-90
2021/05/27 10:46:53;;;;;;;2.33;1.37;;;14.20;68.20;;;;;;6188093;23;20031;-89
2021/05/27 10:49:38;;;;;;;2.67;0.90;;;14.30;68.30;;;;;;6186717;23;20025;-89
2021/05/27 10:52:22;;;;;;;1.33;0.70;;;14.30;67.70;;;;;;6186524;23;20012;-90
2021/05/27 10:54:48;;;;;;;1.90;1.07;;;14.30;68.00;;;;;;6185910;23;20047;-90
2021/05/27 10:57:39;;;;;;;1.37;0.90;;;14.40;68.00;;;;;;6186948;23;20009;-89
2021/05/27 11:00:31;;;;;;;1.20;0.80;;;14.40;67.90;;;;;;6186898;23;20009;-90
2021/05/27 11:03:16;;;;;;;1.47;1.00;;;14.50;67.60;;;;;;6187611;23;20343;-89
2021/05/27 11:06:20;;;;;;;2.33;1.50;;;14.60;67.60;;;;;;6187130;23;20005;-88
2021/05/27 11:08:47;;;;;;;2.37;0.97;;;14.50;67.40;;;;;;6188882;23;20017;-89
2021/05/27 11:11:37;;;;;;;1.83;1.00;;;14.40;67.40;;;;;;6189246;23;20008;-89
2021/05/27 11:14:24;;;;;;;2.63;1.10;;;14.40;67.50;;;;;;6191381;23;19997;-90
2021/05/27 11:17:08;;;;;;;2.50;1.03;;;14.30;67.20;;;;;;6192672;23;20005;-90
2021/05/27 11:20:21;;;;;;;1.83;0.97;;;14.30;67.20;;;;;;6192030;23;20005;-90
2021/05/27 11:22:54;;;;;;;3.22;0.80;;;14.30;67.10;;;;;;6189183;23;20009;-88
2021/05/27 11:25:26;;;;;;;0.70;0.60;;;14.40;67.00;;;;;;6189834;23;20607;-90
2021/05/27 11:28:18;;;;;;;0.90;0.60;;;14.40;66.50;;;;;;6187208;23;20838;-91
2021/05/27 11:30:52;;;;;;;1.43;0.87;;;14.30;66.20;;;;;;6186227;23;20025;-90
2021/05/27 11:33:32;;;;;;;3.23;0.90;;;14.30;66.40;;;;;;6186698;23;20009;-90
2021/05/27 11:36:09;;;;;;;1.97;0.70;;;14.40;66.70;;;;;;6186536;23;20011;-89
2021/05/27 11:38:40;;;;;;;2.23;1.10;;;14.50;66.90;;;;;;6185750;23;20484;-89
2021/05/27 11:41:24;;;;;;;1.03;0.80;;;14.60;66.90;;;;;;6185933;23;20016;-90
2021/05/27 11:43:53;;;;;;;3.30;1.10;;;14.70;66.70;;;;;;6193067;23;20139;-89
2021/05/27 11:46:25;;;;;;;3.90;0.90;;;14.80;66.70;;;;;;6189738;23;20013;-89
2021/05/27 11:51:22;;;;;;;5.03;2.20;;;15.10;66.40;;;;;;6218004;23;20016;-90
2021/05/27 11:54:00;;;;;;;1.90;1.07;;;15.30;66.70;;;;;;6190777;23;20445;-89
2021/05/27 11:56:41;;;;;;;2.63;1.80;;;15.40;66.00;;;;;;6217991;23;20114;-89
2021/05/27 11:59:25;;;;;;;3.13;1.27;;;15.50;66.10;;;;;;6191629;23;20005;-89
2021/05/27 12:02:00;;;;;;;1.47;0.90;;;15.70;65.10;;;;;;6191129;23;20016;-90
2021/05/27 12:04:28;;;;;;;1.33;0.80;;;15.90;65.00;;;;;;6188149;23;20008;-88
2021/05/27 12:07:12;;;;;;;1.30;0.80;;;16.00;64.70;;;;;;6217189;23;20362;-90
2021/05/27 12:09:39;;;;;;;2.00;1.00;;;16.00;64.60;;;;;;6191298;23;20006;-90
2021/05/27 12:12:14;;;;;;;2.95;0.88;;;15.90;64.60;;;;;;6221398;23;19997;-89
2021/05/27 12:14:47;;;;;;;1.27;0.80;;;16.00;64.10;;;;;;6191843;23;20482;-89
2021/05/27 12:17:23;;;;;;;1.43;0.73;;;16.00;64.20;;;;;;6190650;23;20030;-89
2021/05/27 12:19:52;;;;;;;3.17;1.33;;;16.10;63.90;;;;;;6191353;23;20009;-89
2021/05/27 12:22:19;;;;;;;2.03;1.13;;;16.00;63.90;;;;;;6190769;23;20011;-90
2021/05/27 12:24:45;;;;;;;1.48;0.77;;;16.00;63.70;;;;;;6190643;23;20004;-90
2021/05/27 12:27:11;;;;;;;6.78;0.90;;;16.10;64.20;;;;;;6190439;23;20367;-90
2021/05/27 12:29:39;;;;;;;5.05;0.63;;;16.10;63.30;;;;;;6190509;23;20005;-91
2021/05/27 12:32:08;;;;;;;1.37;0.60;;;16.10;62.90;;;;;;6217323;23;20015;-90
2021/05/27 12:34:40;;;;;;;2.20;0.70;;;16.10;62.70;;;;;;6190743;23;20036;-89
2021/05/27 12:37:06;;;;;;;1.30;0.70;;;16.10;62.80;;;;;;6190409;23;20038;-89
2021/05/27 12:39:32;;;;;;;2.67;0.73;;;16.10;62.70;;;;;;6190572;23;20007;-90
2021/05/27 12:41:58;;;;;;;1.30;1.13;;;16.20;62.50;;;;;;6191100;23;20001;-89
2021/05/27 12:44:33;;;;;;;1.50;0.80;;;16.20;62.20;;;;;;6185582;23;20097;-89
2021/05/27 12:46:59;;;;;;;1.90;0.73;;;16.10;62.40;;;;;;6185757;23;20021;-89
2021/05/27 12:49:32;;;;;;;2.95;0.82;;;16.20;62.30;;;;;;6185274;23;20085;-88
2021/05/27 12:51:58;;;;;;;1.25;0.70;;;16.30;62.20;;;;;;6185028;23;20025;-88
2021/05/27 12:54:25;;;;;;;1.25;0.55;;;16.40;62.10;;;;;;6185888;23;20001;-90
2021/05/27 12:57:08;;;;;;;1.48;0.60;;;16.40;61.50;;;;;;6186473;23;20005;-90
2021/05/27 12:59:38;;;;;;;;;;;16.50;60.90;;;;;;6186697;23;20001;-87
2021/05/27 13:02:10;;;;;;;1.15;0.75;;;16.40;61.10;;;;;;6183035;23;19911;-89
2021/05/27 13:04:37;;;;;;;1.40;0.75;;;16.30;61.30;;;;;;6183252;23;20040;-88
2021/05/27 13:07:17;;;;;;;1.02;0.65;;;16.30;61.20;;;;;;6182585;23;20076;-90
2021/05/27 13:09:47;;;;;;;2.73;0.70;;;16.20;61.20;;;;;;6184874;23;20108;-91
2021/05/27 13:12:16;;;;;;;3.03;0.87;;;16.10;61.40;;;;;;6185686;23;20428;-90
2021/05/27 13:14:43;;;;;;;3.23;1.03;;;16.20;61.40;;;;;;6184709;23;20001;-88